sensor_id;sensor_type;location;lat;lon;timestamp;P1;durP1;ratioP1;P2;durP2;ratioP2
36415;SDS011;22447;44.530;18.620;2024-01-16T00:01:31;33.85;;;18.17;;
36415;SDS011;22447;44.530;18.620;2024-01-16T00:03:57;35.05;;;18.70;;
36415;SDS011;22447;44.530;18.620;2024-01-16T00:06:23;30.95;;;16.92;;
36415;SDS011;22447;44.530;18.620;2024-01-16T00:08:49;44.50;;;22.20;;
36415;SDS011;22447;44.530;18.620;2024-01-16T00:11:15;39.15;;;22.00;;
36415;SDS011;22447;44.530;18.620;2024-01-16T00:13:41;46.30;;;23.65;;
36415;SDS011;22447;44.530;18.620;2024-01-16T00:16:07;43.13;;;23.02;;
36415;SDS011;22447;44.530;18.620;2024-01-16T00:18:32;38.25;;;20.50;;
36415;SDS011;22447;44.530;18.620;2024-01-16T00:21:00;33.70;;;18.63;;
36415;SDS011;22447;44.530;18.620;2024-01-16T00:23:28;32.85;;;18.08;;
36415;SDS011;22447;44.530;18.620;2024-01-16T00:25:56;29.77;;;16.20;;
36415;SDS011;22447;44.530;18.620;2024-01-16T00:28:22;28.05;;;15.68;;
36415;SDS011;22447;44.530;18.620;2024-01-16T00:30:48;33.42;;;18.13;;
36415;SDS011;22447;44.530;18.620;2024-01-16T00:33:14;46.60;;;24.88;;
36415;SDS011;22447;44.530;18.620;2024-01-16T00:35:40;46.10;;;24.00;;
36415;SDS011;22447;44.530;18.620;2024-01-16T00:38:06;41.50;;;20.83;;
36415;SDS011;22447;44.530;18.620;2024-01-16T00:40:32;25.02;;;14.70;;
36415;SDS011;22447;44.530;18.620;2024-01-16T00:42:58;22.98;;;14.40;;
36415;SDS011;22447;44.530;18.620;2024-01-16T00:45:23;36.65;;;18.65;;
36415;SDS011;22447;44.530;18.620;2024-01-16T00:47:49;29.67;;;16.98;;
36415;SDS011;22447;44.530;18.620;2024-01-16T00:50:15;31.73;;;16.42;;
36415;SDS011;22447;44.530;18.620;2024-01-16T00:52:41;32.45;;;17.70;;
36415;SDS011;22447;44.530;18.620;2024-01-16T00:55:07;34.58;;;19.38;;
36415;SDS011;22447;44.530;18.620;2024-01-16T00:57:33;30.98;;;18.00;;
36415;SDS011;22447;44.530;18.620;2024-01-16T00:59:59;31.63;;;19.02;;
36415;SDS011;22447;44.530;18.620;2024-01-16T01:02:24;39.35;;;21.08;;
36415;SDS011;22447;44.530;18.620;2024-01-16T01:04:50;35.97;;;18.25;;
36415;SDS011;22447;44.530;18.620;2024-01-16T01:07:16;38.00;;;18.45;;
36415;SDS011;22447;44.530;18.620;2024-01-16T01:09:42;90.32;;;40.70;;
36415;SDS011;22447;44.530;18.620;2024-01-16T01:12:08;90.03;;;42.25;;
36415;SDS011;22447;44.530;18.620;2024-01-16T01:14:35;80.00;;;37.38;;
36415;SDS011;22447;44.530;18.620;2024-01-16T01:17:00;60.55;;;27.90;;
36415;SDS011;22447;44.530;18.620;2024-01-16T01:19:26;45.97;;;23.30;;
36415;SDS011;22447;44.530;18.620;2024-01-16T01:21:53;64.78;;;34.05;;
36415;SDS011;22447;44.530;18.620;2024-01-16T01:24:19;38.28;;;23.45;;
36415;SDS011;22447;44.530;18.620;2024-01-16T01:26:45;37.33;;;20.83;;
36415;SDS011;22447;44.530;18.620;2024-01-16T01:29:11;36.88;;;21.08;;
36415;SDS011;22447;44.530;18.620;2024-01-16T01:31:37;33.50;;;19.50;;
36415;SDS011;22447;44.530;18.620;2024-01-16T01:34:03;37.97;;;21.17;;
36415;SDS011;22447;44.530;18.620;2024-01-16T01:36:29;78.22;;;38.92;;
36415;SDS011;22447;44.530;18.620;2024-01-16T01:38:55;115.43;;;53.40;;
36415;SDS011;22447;44.530;18.620;2024-01-16T01:41:21;68.45;;;34.60;;
36415;SDS011;22447;44.530;18.620;2024-01-16T01:43:47;47.60;;;26.23;;
36415;SDS011;22447;44.530;18.620;2024-01-16T01:46:16;50.78;;;26.48;;
36415;SDS011;22447;44.530;18.620;2024-01-16T01:48:45;56.15;;;28.05;;
36415;SDS011;22447;44.530;18.620;2024-01-16T01:51:13;53.55;;;28.60;;
36415;SDS011;22447;44.530;18.620;2024-01-16T01:53:41;49.17;;;26.88;;
36415;SDS011;22447;44.530;18.620;2024-01-16T01:56:10;47.17;;;26.13;;
36415;SDS011;22447;44.530;18.620;2024-01-16T02:01:06;58.45;;;32.13;;
36415;SDS011;22447;44.530;18.620;2024-01-16T02:03:41;59.90;;;31.63;;
36415;SDS011;22447;44.530;18.620;2024-01-16T02:06:09;63.25;;;32.60;;
36415;SDS011;22447;44.530;18.620;2024-01-16T02:08:36;68.30;;;35.00;;
36415;SDS011;22447;44.530;18.620;2024-01-16T02:11:02;64.72;;;34.55;;
36415;SDS011;22447;44.530;18.620;2024-01-16T02:13:28;84.00;;;41.33;;
36415;SDS011;22447;44.530;18.620;2024-01-16T02:15:54;78.97;;;39.15;;
36415;SDS011;22447;44.530;18.620;2024-01-16T02:18:20;69.60;;;36.17;;
36415;SDS011;22447;44.530;18.620;2024-01-16T02:20:46;53.25;;;28.17;;
36415;SDS011;22447;44.530;18.620;2024-01-16T02:23:13;47.38;;;27.15;;
36415;SDS011;22447;44.530;18.620;2024-01-16T02:25:43;53.13;;;29.33;;
36415;SDS011;22447;44.530;18.620;2024-01-16T02:28:09;55.25;;;30.58;;
36415;SDS011;22447;44.530;18.620;2024-01-16T02:30:35;50.33;;;29.48;;
36415;SDS011;22447;44.530;18.620;2024-01-16T02:33:01;43.63;;;24.25;;
36415;SDS011;22447;44.530;18.620;2024-01-16T02:35:28;57.38;;;29.65;;
36415;SDS011;22447;44.530;18.620;2024-01-16T02:37:54;48.85;;;28.02;;
36415;SDS011;22447;44.530;18.620;2024-01-16T02:40:20;49.20;;;28.27;;
36415;SDS011;22447;44.530;18.620;2024-01-16T02:42:46;45.30;;;25.40;;
36415;SDS011;22447;44.530;18.620;2024-01-16T02:45:12;45.92;;;26.02;;
36415;SDS011;22447;44.530;18.620;2024-01-16T02:47:38;46.30;;;25.13;;
36415;SDS011;22447;44.530;18.620;2024-01-16T02:50:04;42.25;;;25.85;;
36415;SDS011;22447;44.530;18.620;2024-01-16T02:52:30;48.15;;;25.73;;
36415;SDS011;22447;44.530;18.620;2024-01-16T02:54:56;44.28;;;24.33;;
36415;SDS011;22447;44.530;18.620;2024-01-16T02:57:22;41.70;;;23.23;;
36415;SDS011;22447;44.530;18.620;2024-01-16T02:59:48;39.35;;;22.33;;
36415;SDS011;22447;44.530;18.620;2024-01-16T03:02:13;39.58;;;22.08;;
36415;SDS011;22447;44.530;18.620;2024-01-16T03:04:39;42.85;;;23.75;;
36415;SDS011;22447;44.530;18.620;2024-01-16T03:07:06;48.13;;;25.33;;
36415;SDS011;22447;44.530;18.620;2024-01-16T03:09:32;43.17;;;24.15;;
36415;SDS011;22447;44.530;18.620;2024-01-16T03:11:59;46.22;;;25.10;;
36415;SDS011;22447;44.530;18.620;2024-01-16T03:14:25;50.70;;;26.30;;
36415;SDS011;22447;44.530;18.620;2024-01-16T03:16:51;41.25;;;24.52;;
36415;SDS011;22447;44.530;18.620;2024-01-16T03:19:17;42.30;;;23.42;;
36415;SDS011;22447;44.530;18.620;2024-01-16T03:21:42;25.27;;;16.30;;
36415;SDS011;22447;44.530;18.620;2024-01-16T03:24:08;25.10;;;14.55;;
36415;SDS011;22447;44.530;18.620;2024-01-16T03:26:36;20.67;;;13.75;;
36415;SDS011;22447;44.530;18.620;2024-01-16T03:29:03;21.17;;;12.32;;
36415;SDS011;22447;44.530;18.620;2024-01-16T03:31:29;19.50;;;11.80;;
36415;SDS011;22447;44.530;18.620;2024-01-16T03:33:55;19.90;;;12.10;;
36415;SDS011;22447;44.530;18.620;2024-01-16T03:36:21;20.48;;;11.20;;
36415;SDS011;22447;44.530;18.620;2024-01-16T03:38:47;18.98;;;11.02;;
36415;SDS011;22447;44.530;18.620;2024-01-16T03:41:13;15.57;;;9.90;;
36415;SDS011;22447;44.530;18.620;2024-01-16T03:43:39;12.25;;;6.97;;
36415;SDS011;22447;44.530;18.620;2024-01-16T03:46:05;13.82;;;6.97;;
36415;SDS011;22447;44.530;18.620;2024-01-16T03:48:31;15.00;;;8.52;;
36415;SDS011;22447;44.530;18.620;2024-01-16T03:50:57;18.08;;;10.38;;
36415;SDS011;22447;44.530;18.620;2024-01-16T03:53:23;28.83;;;15.38;;
36415;SDS011;22447;44.530;18.620;2024-01-16T03:55:49;30.30;;;16.60;;
36415;SDS011;22447;44.530;18.620;2024-01-16T03:58:16;45.22;;;23.80;;
36415;SDS011;22447;44.530;18.620;2024-01-16T04:00:42;38.08;;;19.88;;
36415;SDS011;22447;44.530;18.620;2024-01-16T04:03:08;31.55;;;17.83;;
36415;SDS011;22447;44.530;18.620;2024-01-16T04:05:34;31.10;;;17.30;;
36415;SDS011;22447;44.530;18.620;2024-01-16T04:08:00;33.90;;;18.00;;
36415;SDS011;22447;44.530;18.620;2024-01-16T04:10:26;28.52;;;16.27;;
36415;SDS011;22447;44.530;18.620;2024-01-16T04:12:51;42.95;;;18.20;;
36415;SDS011;22447;44.530;18.620;2024-01-16T04:15:17;27.90;;;15.82;;
36415;SDS011;22447;44.530;18.620;2024-01-16T04:17:43;33.40;;;17.20;;
36415;SDS011;22447;44.530;18.620;2024-01-16T04:20:09;27.42;;;14.98;;
36415;SDS011;22447;44.530;18.620;2024-01-16T04:22:35;27.63;;;15.00;;
36415;SDS011;22447;44.530;18.620;2024-01-16T04:25:01;27.55;;;15.93;;
36415;SDS011;22447;44.530;18.620;2024-01-16T04:27:30;29.23;;;17.20;;
36415;SDS011;22447;44.530;18.620;2024-01-16T04:29:57;28.38;;;16.33;;
36415;SDS011;22447;44.530;18.620;2024-01-16T04:32:22;25.38;;;15.20;;
36415;SDS011;22447;44.530;18.620;2024-01-16T04:34:48;26.20;;;13.98;;
36415;SDS011;22447;44.530;18.620;2024-01-16T04:37:14;37.30;;;19.15;;
36415;SDS011;22447;44.530;18.620;2024-01-16T04:39:40;42.45;;;20.17;;
36415;SDS011;22447;44.530;18.620;2024-01-16T04:42:06;71.80;;;39.80;;
36415;SDS011;22447;44.530;18.620;2024-01-16T04:44:32;50.10;;;28.52;;
36415;SDS011;22447;44.530;18.620;2024-01-16T04:46:57;50.45;;;27.05;;
36415;SDS011;22447;44.530;18.620;2024-01-16T04:49:23;52.50;;;27.95;;
36415;SDS011;22447;44.530;18.620;2024-01-16T04:51:49;61.90;;;34.97;;
36415;SDS011;22447;44.530;18.620;2024-01-16T04:54:15;59.35;;;35.55;;
36415;SDS011;22447;44.530;18.620;2024-01-16T04:56:41;65.80;;;35.75;;
36415;SDS011;22447;44.530;18.620;2024-01-16T04:59:07;59.33;;;33.72;;
36415;SDS011;22447;44.530;18.620;2024-01-16T05:01:32;57.22;;;33.67;;
36415;SDS011;22447;44.530;18.620;2024-01-16T05:03:58;49.15;;;29.08;;
36415;SDS011;22447;44.530;18.620;2024-01-16T05:06:24;49.08;;;27.40;;
36415;SDS011;22447;44.530;18.620;2024-01-16T05:08:50;48.17;;;26.40;;
36415;SDS011;22447;44.530;18.620;2024-01-16T05:11:16;42.75;;;24.85;;
36415;SDS011;22447;44.530;18.620;2024-01-16T05:13:41;45.28;;;27.08;;
36415;SDS011;22447;44.530;18.620;2024-01-16T05:16:07;46.47;;;25.83;;
36415;SDS011;22447;44.530;18.620;2024-01-16T05:18:33;39.30;;;23.10;;
36415;SDS011;22447;44.530;18.620;2024-01-16T05:20:59;45.88;;;23.63;;
36415;SDS011;22447;44.530;18.620;2024-01-16T05:23:25;38.38;;;21.17;;
36415;SDS011;22447;44.530;18.620;2024-01-16T05:25:51;44.53;;;24.30;;
36415;SDS011;22447;44.530;18.620;2024-01-16T05:28:17;42.47;;;22.88;;
36415;SDS011;22447;44.530;18.620;2024-01-16T05:30:43;73.85;;;33.33;;
36415;SDS011;22447;44.530;18.620;2024-01-16T05:33:09;79.15;;;33.60;;
36415;SDS011;22447;44.530;18.620;2024-01-16T05:35:35;55.35;;;28.15;;
36415;SDS011;22447;44.530;18.620;2024-01-16T05:38:01;54.83;;;28.40;;
36415;SDS011;22447;44.530;18.620;2024-01-16T05:40:28;109.28;;;46.60;;
36415;SDS011;22447;44.530;18.620;2024-01-16T05:42:54;127.18;;;56.33;;
36415;SDS011;22447;44.530;18.620;2024-01-16T05:45:21;132.95;;;54.17;;
36415;SDS011;22447;44.530;18.620;2024-01-16T05:47:47;154.93;;;62.50;;
36415;SDS011;22447;44.530;18.620;2024-01-16T05:50:13;94.55;;;45.50;;
36415;SDS011;22447;44.530;18.620;2024-01-16T05:52:41;87.65;;;45.08;;
36415;SDS011;22447;44.530;18.620;2024-01-16T05:55:08;91.97;;;46.65;;
36415;SDS011;22447;44.530;18.620;2024-01-16T05:57:34;75.32;;;41.28;;
36415;SDS011;22447;44.530;18.620;2024-01-16T05:59:59;81.53;;;43.97;;
36415;SDS011;22447;44.530;18.620;2024-01-16T06:02:30;87.05;;;45.72;;
36415;SDS011;22447;44.530;18.620;2024-01-16T06:04:56;105.88;;;55.90;;
36415;SDS011;22447;44.530;18.620;2024-01-16T06:07:22;87.47;;;45.58;;
36415;SDS011;22447;44.530;18.620;2024-01-16T06:09:48;93.15;;;48.42;;
36415;SDS011;22447;44.530;18.620;2024-01-16T06:12:14;94.88;;;53.25;;
36415;SDS011;22447;44.530;18.620;2024-01-16T06:14:40;96.43;;;51.72;;
36415;SDS011;22447;44.530;18.620;2024-01-16T06:17:05;98.50;;;54.95;;
36415;SDS011;22447;44.530;18.620;2024-01-16T06:19:31;102.32;;;58.58;;
36415;SDS011;22447;44.530;18.620;2024-01-16T06:21:58;119.53;;;73.57;;
36415;SDS011;22447;44.530;18.620;2024-01-16T06:24:25;135.38;;;84.57;;
36415;SDS011;22447;44.530;18.620;2024-01-16T06:26:51;123.00;;;74.70;;
36415;SDS011;22447;44.530;18.620;2024-01-16T06:29:16;107.93;;;60.85;;
36415;SDS011;22447;44.530;18.620;2024-01-16T06:31:42;100.32;;;56.40;;
36415;SDS011;22447;44.530;18.620;2024-01-16T06:34:08;101.95;;;56.10;;
36415;SDS011;22447;44.530;18.620;2024-01-16T06:36:34;91.35;;;50.65;;
36415;SDS011;22447;44.530;18.620;2024-01-16T06:39:00;107.65;;;54.53;;
36415;SDS011;22447;44.530;18.620;2024-01-16T06:41:25;110.50;;;58.28;;
36415;SDS011;22447;44.530;18.620;2024-01-16T06:43:51;107.78;;;57.78;;
36415;SDS011;22447;44.530;18.620;2024-01-16T06:46:17;121.63;;;60.20;;
36415;SDS011;22447;44.530;18.620;2024-01-16T06:48:43;104.78;;;56.08;;
36415;SDS011;22447;44.530;18.620;2024-01-16T06:51:09;102.90;;;56.13;;
36415;SDS011;22447;44.530;18.620;2024-01-16T06:53:35;105.13;;;55.42;;
36415;SDS011;22447;44.530;18.620;2024-01-16T06:56:02;109.93;;;58.00;;
36415;SDS011;22447;44.530;18.620;2024-01-16T06:58:28;108.35;;;55.97;;
36415;SDS011;22447;44.530;18.620;2024-01-16T07:00:54;118.03;;;56.22;;
36415;SDS011;22447;44.530;18.620;2024-01-16T07:03:20;117.05;;;57.78;;
36415;SDS011;22447;44.530;18.620;2024-01-16T07:05:46;108.70;;;55.42;;
36415;SDS011;22447;44.530;18.620;2024-01-16T07:08:12;109.10;;;55.05;;
36415;SDS011;22447;44.530;18.620;2024-01-16T07:10:37;94.22;;;49.67;;
36415;SDS011;22447;44.530;18.620;2024-01-16T07:13:03;93.78;;;50.60;;
36415;SDS011;22447;44.530;18.620;2024-01-16T07:15:29;101.72;;;51.80;;
36415;SDS011;22447;44.530;18.620;2024-01-16T07:17:55;96.88;;;55.10;;
36415;SDS011;22447;44.530;18.620;2024-01-16T07:20:21;105.38;;;53.78;;
36415;SDS011;22447;44.530;18.620;2024-01-16T07:22:47;103.93;;;55.33;;
36415;SDS011;22447;44.530;18.620;2024-01-16T07:25:12;111.47;;;60.55;;
36415;SDS011;22447;44.530;18.620;2024-01-16T07:27:38;112.95;;;60.80;;
36415;SDS011;22447;44.530;18.620;2024-01-16T07:30:04;113.20;;;62.80;;
36415;SDS011;22447;44.530;18.620;2024-01-16T07:32:31;116.18;;;60.85;;
36415;SDS011;22447;44.530;18.620;2024-01-16T07:34:57;118.18;;;63.08;;
36415;SDS011;22447;44.530;18.620;2024-01-16T07:37:23;113.15;;;62.55;;
36415;SDS011;22447;44.530;18.620;2024-01-16T07:39:49;124.95;;;65.45;;
36415;SDS011;22447;44.530;18.620;2024-01-16T07:42:15;130.32;;;61.67;;
36415;SDS011;22447;44.530;18.620;2024-01-16T07:44:41;133.30;;;64.82;;
36415;SDS011;22447;44.530;18.620;2024-01-16T07:47:06;141.38;;;68.93;;
36415;SDS011;22447;44.530;18.620;2024-01-16T07:49:33;139.98;;;69.25;;
36415;SDS011;22447;44.530;18.620;2024-01-16T07:51:59;158.23;;;83.35;;
36415;SDS011;22447;44.530;18.620;2024-01-16T07:54:25;162.32;;;82.57;;
36415;SDS011;22447;44.530;18.620;2024-01-16T07:56:51;137.60;;;75.97;;
36415;SDS011;22447;44.530;18.620;2024-01-16T07:59:17;145.25;;;73.60;;
36415;SDS011;22447;44.530;18.620;2024-01-16T08:01:43;128.02;;;68.13;;
36415;SDS011;22447;44.530;18.620;2024-01-16T08:04:09;148.80;;;79.28;;
36415;SDS011;22447;44.530;18.620;2024-01-16T08:06:35;135.68;;;73.75;;
36415;SDS011;22447;44.530;18.620;2024-01-16T08:09:01;124.57;;;64.65;;
36415;SDS011;22447;44.530;18.620;2024-01-16T08:11:27;107.35;;;57.45;;
36415;SDS011;22447;44.530;18.620;2024-01-16T08:13:54;101.88;;;55.03;;
36415;SDS011;22447;44.530;18.620;2024-01-16T08:16:21;127.68;;;62.90;;
36415;SDS011;22447;44.530;18.620;2024-01-16T08:18:46;123.75;;;58.78;;
36415;SDS011;22447;44.530;18.620;2024-01-16T08:21:13;136.07;;;66.53;;
36415;SDS011;22447;44.530;18.620;2024-01-16T08:23:38;152.50;;;69.32;;
36415;SDS011;22447;44.530;18.620;2024-01-16T08:26:04;193.02;;;93.10;;
36415;SDS011;22447;44.530;18.620;2024-01-16T08:28:30;197.75;;;101.10;;
36415;SDS011;22447;44.530;18.620;2024-01-16T08:30:56;184.40;;;89.63;;
36415;SDS011;22447;44.530;18.620;2024-01-16T08:33:24;114.25;;;58.40;;
36415;SDS011;22447;44.530;18.620;2024-01-16T08:35:49;104.55;;;57.15;;
36415;SDS011;22447;44.530;18.620;2024-01-16T08:38:15;98.63;;;52.88;;
36415;SDS011;22447;44.530;18.620;2024-01-16T08:40:41;88.10;;;46.50;;
36415;SDS011;22447;44.530;18.620;2024-01-16T08:43:07;84.50;;;45.40;;
36415;SDS011;22447;44.530;18.620;2024-01-16T08:45:33;96.13;;;49.45;;
36415;SDS011;22447;44.530;18.620;2024-01-16T08:47:59;102.13;;;52.15;;
36415;SDS011;22447;44.530;18.620;2024-01-16T08:50:25;107.75;;;57.70;;
36415;SDS011;22447;44.530;18.620;2024-01-16T08:52:51;116.32;;;61.25;;
36415;SDS011;22447;44.530;18.620;2024-01-16T08:55:17;125.82;;;63.65;;
36415;SDS011;22447;44.530;18.620;2024-01-16T08:57:43;151.02;;;72.22;;
36415;SDS011;22447;44.530;18.620;2024-01-16T09:00:09;144.65;;;73.43;;
36415;SDS011;22447;44.530;18.620;2024-01-16T09:02:35;130.88;;;66.60;;
36415;SDS011;22447;44.530;18.620;2024-01-16T09:05:01;137.68;;;70.60;;
36415;SDS011;22447;44.530;18.620;2024-01-16T09:07:27;142.52;;;71.30;;
36415;SDS011;22447;44.530;18.620;2024-01-16T09:09:53;138.43;;;69.75;;
36415;SDS011;22447;44.530;18.620;2024-01-16T09:12:19;136.43;;;72.10;;
36415;SDS011;22447;44.530;18.620;2024-01-16T09:14:45;137.98;;;71.25;;
36415;SDS011;22447;44.530;18.620;2024-01-16T09:17:11;148.80;;;78.28;;
36415;SDS011;22447;44.530;18.620;2024-01-16T09:19:37;137.75;;;71.53;;
36415;SDS011;22447;44.530;18.620;2024-01-16T09:22:03;141.20;;;74.07;;
36415;SDS011;22447;44.530;18.620;2024-01-16T09:24:29;156.18;;;75.63;;
36415;SDS011;22447;44.530;18.620;2024-01-16T09:26:55;132.40;;;67.07;;
36415;SDS011;22447;44.530;18.620;2024-01-16T09:29:23;132.32;;;68.68;;
36415;SDS011;22447;44.530;18.620;2024-01-16T09:31:50;139.50;;;74.75;;
36415;SDS011;22447;44.530;18.620;2024-01-16T09:34:16;119.25;;;66.70;;
36415;SDS011;22447;44.530;18.620;2024-01-16T09:36:43;124.78;;;63.97;;
36415;SDS011;22447;44.530;18.620;2024-01-16T09:39:09;122.20;;;65.70;;
36415;SDS011;22447;44.530;18.620;2024-01-16T09:41:39;122.78;;;68.63;;
36415;SDS011;22447;44.530;18.620;2024-01-16T09:44:06;110.03;;;59.90;;
36415;SDS011;22447;44.530;18.620;2024-01-16T09:46:32;99.78;;;54.95;;
36415;SDS011;22447;44.530;18.620;2024-01-16T09:49:02;95.72;;;54.25;;
36415;SDS011;22447;44.530;18.620;2024-01-16T09:51:28;91.68;;;53.00;;
36415;SDS011;22447;44.530;18.620;2024-01-16T09:53:54;97.95;;;56.80;;
36415;SDS011;22447;44.530;18.620;2024-01-16T09:56:21;95.95;;;57.10;;
36415;SDS011;22447;44.530;18.620;2024-01-16T09:58:49;104.05;;;56.60;;
36415;SDS011;22447;44.530;18.620;2024-01-16T10:03:46;99.68;;;58.13;;
36415;SDS011;22447;44.530;18.620;2024-01-16T10:06:12;90.20;;;52.25;;
36415;SDS011;22447;44.530;18.620;2024-01-16T10:08:40;81.07;;;46.97;;
36415;SDS011;22447;44.530;18.620;2024-01-16T10:11:06;92.57;;;56.63;;
36415;SDS011;22447;44.530;18.620;2024-01-16T10:13:33;89.25;;;51.85;;
36415;SDS011;22447;44.530;18.620;2024-01-16T10:16:00;88.07;;;52.63;;
36415;SDS011;22447;44.530;18.620;2024-01-16T10:18:27;104.65;;;57.30;;
36415;SDS011;22447;44.530;18.620;2024-01-16T10:20:59;96.38;;;55.00;;
36415;SDS011;22447;44.530;18.620;2024-01-16T10:23:27;91.47;;;56.88;;
36415;SDS011;22447;44.530;18.620;2024-01-16T10:26:09;100.55;;;58.15;;
36415;SDS011;22447;44.530;18.620;2024-01-16T10:28:40;97.55;;;55.42;;
36415;SDS011;22447;44.530;18.620;2024-01-16T10:33:36;86.40;;;53.35;;
36415;SDS011;22447;44.530;18.620;2024-01-16T10:38:40;86.68;;;50.58;;
36415;SDS011;22447;44.530;18.620;2024-01-16T10:41:16;81.78;;;49.00;;
36415;SDS011;22447;44.530;18.620;2024-01-16T10:43:44;83.25;;;50.45;;
36415;SDS011;22447;44.530;18.620;2024-01-16T10:46:11;82.18;;;49.15;;
36415;SDS011;22447;44.530;18.620;2024-01-16T10:51:16;79.18;;;48.13;;
36415;SDS011;22447;44.530;18.620;2024-01-16T10:53:43;68.80;;;41.67;;
36415;SDS011;22447;44.530;18.620;2024-01-16T10:56:10;61.05;;;38.45;;
36415;SDS011;22447;44.530;18.620;2024-01-16T10:58:38;48.08;;;31.17;;
36415;SDS011;22447;44.530;18.620;2024-01-16T11:01:07;70.55;;;41.08;;
36415;SDS011;22447;44.530;18.620;2024-01-16T11:03:48;69.53;;;42.45;;
36415;SDS011;22447;44.530;18.620;2024-01-16T11:06:16;77.50;;;44.17;;
36415;SDS011;22447;44.530;18.620;2024-01-16T11:08:45;66.70;;;41.15;;
36415;SDS011;22447;44.530;18.620;2024-01-16T11:11:12;52.22;;;32.80;;
36415;SDS011;22447;44.530;18.620;2024-01-16T11:13:40;45.30;;;28.35;;
36415;SDS011;22447;44.530;18.620;2024-01-16T11:16:12;51.13;;;32.45;;
36415;SDS011;22447;44.530;18.620;2024-01-16T11:18:38;45.72;;;29.38;;
36415;SDS011;22447;44.530;18.620;2024-01-16T11:21:05;42.15;;;24.63;;
36415;SDS011;22447;44.530;18.620;2024-01-16T11:23:34;42.35;;;24.40;;
36415;SDS011;22447;44.530;18.620;2024-01-16T11:29:01;40.78;;;20.80;;
36415;SDS011;22447;44.530;18.620;2024-01-16T11:31:52;33.42;;;21.15;;
36415;SDS011;22447;44.530;18.620;2024-01-16T11:37:15;19.67;;;10.07;;
36415;SDS011;22447;44.530;18.620;2024-01-16T11:40:13;35.10;;;16.20;;
36415;SDS011;22447;44.530;18.620;2024-01-16T11:42:46;28.13;;;13.75;;
36415;SDS011;22447;44.530;18.620;2024-01-16T11:48:10;21.90;;;9.20;;
36415;SDS011;22447;44.530;18.620;2024-01-16T11:50:35;16.20;;;8.68;;
36415;SDS011;22447;44.530;18.620;2024-01-16T11:53:02;13.45;;;8.73;;
36415;SDS011;22447;44.530;18.620;2024-01-16T11:55:28;42.90;;;15.00;;
36415;SDS011;22447;44.530;18.620;2024-01-16T12:00:33;30.42;;;10.82;;
36415;SDS011;22447;44.530;18.620;2024-01-16T12:03:02;46.15;;;11.45;;
36415;SDS011;22447;44.530;18.620;2024-01-16T12:05:29;29.70;;;8.50;;
36415;SDS011;22447;44.530;18.620;2024-01-16T12:07:55;12.45;;;6.20;;
36415;SDS011;22447;44.530;18.620;2024-01-16T12:10:21;27.48;;;7.93;;
36415;SDS011;22447;44.530;18.620;2024-01-16T12:12:49;10.13;;;5.95;;
36415;SDS011;22447;44.530;18.620;2024-01-16T12:15:20;26.58;;;7.70;;
36415;SDS011;22447;44.530;18.620;2024-01-16T12:20:19;32.10;;;7.10;;
36415;SDS011;22447;44.530;18.620;2024-01-16T12:22:52;18.50;;;5.93;;
36415;SDS011;22447;44.530;18.620;2024-01-16T12:25:29;21.13;;;6.32;;
36415;SDS011;22447;44.530;18.620;2024-01-16T12:30:26;18.58;;;5.07;;
36415;SDS011;22447;44.530;18.620;2024-01-16T12:35:36;14.30;;;4.53;;
36415;SDS011;22447;44.530;18.620;2024-01-16T12:38:06;6.70;;;2.92;;
36415;SDS011;22447;44.530;18.620;2024-01-16T12:40:37;15.18;;;3.33;;
36415;SDS011;22447;44.530;18.620;2024-01-16T12:43:05;19.30;;;5.38;;
36415;SDS011;22447;44.530;18.620;2024-01-16T12:45:33;6.15;;;2.85;;
36415;SDS011;22447;44.530;18.620;2024-01-16T12:48:01;17.98;;;2.90;;
36415;SDS011;22447;44.530;18.620;2024-01-16T12:50:31;10.65;;;2.85;;
36415;SDS011;22447;44.530;18.620;2024-01-16T12:53:01;12.82;;;2.70;;
36415;SDS011;22447;44.530;18.620;2024-01-16T12:55:28;15.63;;;3.22;;
36415;SDS011;22447;44.530;18.620;2024-01-16T13:00:44;12.32;;;3.60;;
36415;SDS011;22447;44.530;18.620;2024-01-16T13:05:43;23.27;;;6.32;;
36415;SDS011;22447;44.530;18.620;2024-01-16T13:08:16;14.95;;;7.00;;
36415;SDS011;22447;44.530;18.620;2024-01-16T13:10:43;20.15;;;6.22;;
36415;SDS011;22447;44.530;18.620;2024-01-16T13:13:13;11.35;;;5.45;;
36415;SDS011;22447;44.530;18.620;2024-01-16T13:15:43;20.15;;;4.60;;
36415;SDS011;22447;44.530;18.620;2024-01-16T13:18:20;16.00;;;3.55;;
36415;SDS011;22447;44.530;18.620;2024-01-16T13:20:47;4.57;;;2.35;;
36415;SDS011;22447;44.530;18.620;2024-01-16T13:23:17;9.65;;;2.53;;
36415;SDS011;22447;44.530;18.620;2024-01-16T13:25:44;6.65;;;1.88;;
36415;SDS011;22447;44.530;18.620;2024-01-16T13:28:12;4.15;;;1.70;;
36415;SDS011;22447;44.530;18.620;2024-01-16T13:30:39;9.45;;;2.85;;
36415;SDS011;22447;44.530;18.620;2024-01-16T13:33:06;7.00;;;2.55;;
36415;SDS011;22447;44.530;18.620;2024-01-16T13:35:34;9.48;;;2.60;;
36415;SDS011;22447;44.530;18.620;2024-01-16T13:38:01;20.58;;;3.28;;
36415;SDS011;22447;44.530;18.620;2024-01-16T13:40:29;9.15;;;2.28;;
36415;SDS011;22447;44.530;18.620;2024-01-16T13:42:55;7.68;;;2.47;;
36415;SDS011;22447;44.530;18.620;2024-01-16T13:45:21;5.60;;;2.20;;
36415;SDS011;22447;44.530;18.620;2024-01-16T13:47:48;11.48;;;3.58;;
36415;SDS011;22447;44.530;18.620;2024-01-16T13:50:14;14.68;;;4.78;;
36415;SDS011;22447;44.530;18.620;2024-01-16T13:52:40;7.80;;;3.00;;
36415;SDS011;22447;44.530;18.620;2024-01-16T13:55:06;21.85;;;5.90;;
36415;SDS011;22447;44.530;18.620;2024-01-16T13:57:32;11.65;;;3.78;;
36415;SDS011;22447;44.530;18.620;2024-01-16T14:00:02;19.52;;;4.35;;
36415;SDS011;22447;44.530;18.620;2024-01-16T14:02:47;14.18;;;4.72;;
36415;SDS011;22447;44.530;18.620;2024-01-16T14:05:14;17.33;;;5.43;;
36415;SDS011;22447;44.530;18.620;2024-01-16T14:07:44;18.08;;;6.30;;
36415;SDS011;22447;44.530;18.620;2024-01-16T14:10:11;18.60;;;5.78;;
36415;SDS011;22447;44.530;18.620;2024-01-16T14:12:39;24.27;;;9.13;;
36415;SDS011;22447;44.530;18.620;2024-01-16T14:15:08;21.90;;;7.57;;
36415;SDS011;22447;44.530;18.620;2024-01-16T14:17:51;8.32;;;4.38;;
36415;SDS011;22447;44.530;18.620;2024-01-16T14:20:18;33.75;;;9.13;;
36415;SDS011;22447;44.530;18.620;2024-01-16T14:22:52;19.15;;;5.82;;
36415;SDS011;22447;44.530;18.620;2024-01-16T14:25:18;20.35;;;4.47;;
36415;SDS011;22447;44.530;18.620;2024-01-16T14:28:03;18.98;;;5.53;;
36415;SDS011;22447;44.530;18.620;2024-01-16T14:30:31;11.90;;;4.55;;
36415;SDS011;22447;44.530;18.620;2024-01-16T14:32:58;15.10;;;5.50;;
36415;SDS011;22447;44.530;18.620;2024-01-16T14:35:24;20.00;;;6.18;;
36415;SDS011;22447;44.530;18.620;2024-01-16T14:37:50;28.50;;;6.05;;
36415;SDS011;22447;44.530;18.620;2024-01-16T14:40:16;15.55;;;5.00;;
36415;SDS011;22447;44.530;18.620;2024-01-16T14:42:48;22.63;;;5.22;;
36415;SDS011;22447;44.530;18.620;2024-01-16T14:45:21;16.15;;;6.22;;